Weather at Aba Tenna Dejazmach Yilma International Airport

Public forecast

Using degrees Celsius for public forecast. Weather courtesy of forecast.io.

Closest aviation weather report (METAR) to Aba Tenna Dejazmach Yilma International Airport

Report is more than 6 hours old.

Closest report is Djibouti-Ambouli Airport, 138.8 nm (257.0 km) NNE.

2022/11/13 17:00 (retrieved 2 years ago)

HDAM 131700Z 09007KT 9999 FEW023 29/24 Q1016

Aviation forecast (TAF) for Aba Tenna Dejazmach Yilma International Airport

Forecast is more than 12 hours old.

2023/02/22 18:20 (retrieved 1 year ago)

TAF HADR 221530Z 2218/2324 VRB05KT CAVOK